Amuesa — CQOC — position and weather

sailwx.info

Track history (hours):
 
Tides and Currents Weather Stations Pressure Air Temp Water Temp Dewpoint Dewpoint Depression Visibility Wind Speed Wind Dir Waves Ship Positions

Amuesa

Last reported at 2017-Oct-17 19:17 UTC. Time now 2017-Oct-18 02:33 UTC.
Position N 43°57' W 005°22'.

Length 90 m; draft 4.2 m.

Type: Cargo ship. MMSI: 255802640.

Date/timePositionNaut miles runAvg speedWind from/ knotsBaromVisibWave heightAir tempDewpointWater temp
2017-Oct-17 19:17N 43°57' W 005°22'3 9.2
2017-Oct-17 18:55N 43°54' W 005°25'5 9.2
2017-Oct-17 18:20N 43°50' W 005°29'3 9.2
2017-Oct-17 17:59N 43°47' W 005°32'4 9.1
2017-Oct-17 17:30N 43°44' W 005°34'4 9.2
2017-Oct-17 17:01N 43°40' W 005°38'7 2.0
2017-Oct-17 13:40N 43°34' W 005°42'0 0.0
2017-Oct-17 13:16N 43°34' W 005°42'0 0.0
2017-Oct-17 11:04N 43°34' W 005°42'0 0.0
2017-Oct-17 10:52N 43°34' W 005°42'0 0.0
2017-Oct-17 10:28N 43°34' W 005°42'0 0.0
2017-Oct-17 09:46N 43°34' W 005°42'0 0.0
2017-Oct-17 09:22N 43°34' W 005°42'0 0.0
2017-Oct-17 08:58N 43°34' W 005°42'0 0.0
2017-Oct-17 08:28N 43°34' W 005°42'0 0.0
2017-Oct-17 07:58N 43°34' W 005°42'0 0.0
2017-Oct-17 07:22N 43°34' W 005°42'0 0.0
2017-Oct-17 06:52N 43°34' W 005°42'0 0.0
2017-Oct-17 06:22N 43°34' W 005°42'0 0.0
2017-Oct-17 05:58N 43°34' W 005°42'0 0.0
2017-Oct-17 05:28N 43°34' W 005°42'0 0.0
2017-Oct-17 04:58N 43°34' W 005°42'0 0.0
2017-Oct-17 04:28N 43°34' W 005°42'0 0.0
2017-Oct-17 03:46N 43°34' W 005°42'0 0.0
2017-Oct-17 01:52N 43°34' W 005°42'0 0.0
2017-Oct-17 01:28N 43°34' W 005°42'0 0.0
2017-Oct-17 00:58N 43°34' W 005°42'0 0.0
2017-Oct-17 00:28N 43°34' W 005°42'0 0.0
2017-Oct-16 19:16N 43°34' W 005°42'0 0.0
2017-Oct-16 18:58N 43°34' W 005°42'0 0.8
2017-Oct-16 18:30N 43°34' W 005°42'2 4.7
2017-Oct-16 17:59N 43°36' W 005°41'0 0.1
2017-Oct-16 17:00N 43°36' W 005°41'0 0.0
2017-Oct-16 16:30N 43°36' W 005°41'0 0.0
2017-Oct-16 07:24N 43°36' W 005°41'0 0.1
2017-Oct-16 06:48N 43°36' W 005°41'0 0.2
2017-Oct-16 06:18N 43°36' W 005°41'0 0.1
2017-Oct-16 06:00N 43°36' W 005°41'0 0.0
2017-Oct-16 05:30N 43°36' W 005°41'0 0.0
2017-Oct-16 05:00N 43°36' W 005°41'0 0.0
2017-Oct-16 04:30N 43°36' W 005°41'0 0.0
2017-Oct-16 04:00N 43°36' W 005°41'0 0.0
2017-Oct-16 03:00N 43°36' W 005°41'0 0.1
2017-Oct-16 02:30N 43°36' W 005°41'0 0.0
2017-Oct-16 02:00N 43°36' W 005°41'0 0.0
2017-Oct-16 01:30N 43°36' W 005°41'0 0.1
2017-Oct-16 00:48N 43°36' W 005°41'0 0.0
2017-Oct-16 00:30N 43°36' W 005°41'0 0.0
2017-Oct-16 00:00N 43°36' W 005°41'0 0.0
2017-Oct-15 19:36N 43°36' W 005°41'0 0.2
2017-Oct-15 19:30N 43°36' W 005°41'0 0.1
2017-Oct-15 19:00N 43°36' W 005°41'0 0.0
2017-Oct-15 18:30N 43°36' W 005°41'0 0.0
2017-Oct-15 18:00N 43°36' W 005°41'0 0.0
2017-Oct-15 17:30N 43°36' W 005°41'0 0.0
2017-Oct-15 17:00N 43°36' W 005°41'0 0.0
2017-Oct-15 16:24N 43°36' W 005°41'0 0.0
2017-Oct-15 16:00N 43°36' W 005°41'0 0.0
2017-Oct-15 15:30N 43°36' W 005°41'0 0.1
2017-Oct-15 14:54N 43°36' W 005°41'0 0.0
2017-Oct-15 14:00N 43°36' W 005°41'0 0.0
2017-Oct-15 13:30N 43°36' W 005°41'0 0.0
2017-Oct-15 13:00N 43°36' W 005°41'0 0.0
2017-Oct-15 12:30N 43°36' W 005°41'0 0.1
2017-Oct-15 11:54N 43°36' W 005°41'0 0.0
2017-Oct-15 11:24N 43°36' W 005°41'0 0.0
2017-Oct-15 10:54N 43°36' W 005°41'0 0.0
2017-Oct-15 10:30N 43°36' W 005°41'0 0.0
2017-Oct-15 10:00N 43°36' W 005°41'0 0.1
2017-Oct-15 09:30N 43°36' W 005°41'0 0.0
2017-Oct-15 09:00N 43°36' W 005°41'0 0.0
2017-Oct-15 08:30N 43°36' W 005°41'0 0.1
2017-Oct-15 08:00N 43°36' W 005°41'0 0.0
2017-Oct-15 07:30N 43°36' W 005°41'0 0.1
2017-Oct-15 06:54N 43°36' W 005°41'0 0.1
2017-Oct-15 06:30N 43°36' W 005°41'0 0.1
2017-Oct-15 06:00N 43°36' W 005°41'0 0.1
2017-Oct-15 05:30N 43°36' W 005°41'0 0.0
2017-Oct-15 05:00N 43°36' W 005°41'0 0.0
2017-Oct-15 04:30N 43°36' W 005°41'0 0.0
2017-Oct-15 04:00N 43°36' W 005°41'0 0.0
2017-Oct-15 03:30N 43°36' W 005°41'0 0.0
2017-Oct-15 03:00N 43°36' W 005°41'0 0.0
2017-Oct-15 02:30N 43°36' W 005°41'0 0.0
2017-Oct-15 02:00N 43°36' W 005°41'0 0.0
2017-Oct-15 01:30N 43°36' W 005°41'0 0.0
2017-Oct-15 01:00N 43°36' W 005°41'0 0.0
2017-Oct-15 00:30N 43°36' W 005°41'0 0.0
2017-Oct-14 23:54N 43°36' W 005°41'0 0.0
2017-Oct-14 23:30N 43°36' W 005°41'0 0.0
2017-Oct-14 23:00N 43°36' W 005°41'0 0.0
2017-Oct-14 22:30N 43°36' W 005°41'0 0.0
2017-Oct-14 21:57N 43°36' W 005°41'0 0.0
2017-Oct-14 21:27N 43°36' W 005°41'0 0.0
2017-Oct-14 21:00N 43°36' W 005°41'0 0.0
2017-Oct-14 20:30N 43°36' W 005°41'0 0.0
2017-Oct-14 20:00N 43°36' W 005°41'0 0.0
2017-Oct-14 19:30N 43°36' W 005°41'0 0.0
2017-Oct-14 19:00N 43°36' W 005°41'0 0.0
2017-Oct-14 18:30N 43°36' W 005°41'0 0.0
2017-Oct-14 18:00N 43°36' W 005°41'0 0.0
2017-Oct-14 17:30N 43°36' W 005°41'0 0.0
2017-Oct-14 17:00N 43°36' W 005°41'0 0.0
2017-Oct-14 16:30N 43°36' W 005°41'0 0.0
2017-Oct-14 16:00N 43°36' W 005°41'0 0.0
2017-Oct-14 15:24N 43°36' W 005°41'0 0.0
2017-Oct-14 15:00N 43°36' W 005°41'0 0.0
2017-Oct-14 14:27N 43°36' W 005°41'0 0.0
2017-Oct-14 14:00N 43°36' W 005°41'0 0.0
2017-Oct-14 13:30N 43°36' W 005°41'0 0.0
2017-Oct-14 12:54N 43°36' W 005°41'0 0.0
2017-Oct-14 12:30N 43°36' W 005°41'0 0.0
2017-Oct-14 12:00N 43°36' W 005°41'0 0.0
2017-Oct-14 11:30N 43°36' W 005°41'0 0.0
2017-Oct-14 11:00N 43°36' W 005°41'0 0.1
2017-Oct-14 10:30N 43°36' W 005°41'0 0.1
2017-Oct-14 09:48N 43°36' W 005°41'0 0.1
2017-Oct-14 09:30N 43°36' W 005°41'0 0.0
2017-Oct-14 09:00N 43°36' W 005°41'0 0.0
2017-Oct-14 08:30N 43°36' W 005°41'0 0.0
2017-Oct-14 08:00N 43°36' W 005°41'0 0.0
2017-Oct-14 07:30N 43°36' W 005°41'0 0.0
2017-Oct-14 07:00N 43°36' W 005°41'0 0.0
2017-Oct-14 06:30N 43°36' W 005°41'0 0.0
2017-Oct-14 06:00N 43°36' W 005°41'0 0.0
2017-Oct-14 05:30N 43°36' W 005°41'0 0.0
2017-Oct-14 05:00N 43°36' W 005°41'0 0.0
2017-Oct-14 04:30N 43°36' W 005°41'0 0.0
2017-Oct-14 03:48N 43°36' W 005°41'0 0.0
2017-Oct-14 03:30N 43°36' W 005°41'0 0.0
2017-Oct-14 03:00N 43°36' W 005°41'0 0.0
2017-Oct-14 02:30N 43°36' W 005°41'0 0.1
2017-Oct-14 02:00N 43°36' W 005°41'0 0.0
2017-Oct-14 01:30N 43°36' W 005°41'0 0.1
2017-Oct-14 01:00N 43°36' W 005°41'0 0.0
2017-Oct-13 21:54N 43°36' W 005°41'0 0.0
2017-Oct-13 20:00N 43°36' W 005°41'0 0.0
2017-Oct-13 19:24N 43°36' W 005°41'0 0.0
2017-Oct-13 18:48N 43°36' W 005°41'0 0.0
2017-Oct-13 18:27N 43°36' W 005°41'0 0.0
2017-Oct-13 18:00N 43°36' W 005°41'0 0.0
2017-Oct-13 17:27N 43°36' W 005°41'0 0.1
2017-Oct-13 16:57N 43°36' W 005°41'0 0.0
2017-Oct-13 16:27N 43°36' W 005°41'0 0.0
2017-Oct-13 16:00N 43°36' W 005°41'0 0.0
2017-Oct-13 15:30N 43°36' W 005°41'0 0.0
2017-Oct-13 15:00N 43°36' W 005°41'0 0.0
2017-Oct-13 13:24N 43°36' W 005°41'0 0.0
2017-Oct-13 12:54N 43°36' W 005°41'0 0.1
2017-Oct-13 12:30N 43°36' W 005°41'0 0.1
2017-Oct-13 12:00N 43°36' W 005°41'0 0.1
2017-Oct-13 11:18N 43°36' W 005°41'0 0.1
2017-Oct-13 10:24N 43°36' W 005°41'0 0.1
2017-Oct-13 09:36N 43°36' W 005°41'0 0.1
2017-Oct-13 09:27N 43°36' W 005°41'0 0.1
2017-Oct-13 08:18N 43°36' W 005°41'0 0.0
2017-Oct-13 07:54N 43°36' W 005°41'0 0.1
2017-Oct-13 07:12N 43°36' W 005°41'0 0.0
2017-Oct-13 07:00N 43°36' W 005°41'0 0.1
2017-Oct-13 06:30N 43°36' W 005°41'0 0.0
2017-Oct-13 06:00N 43°36' W 005°41'0 0.0
2017-Oct-13 05:12N 43°36' W 005°41'0 0.5
2017-Oct-13 05:00N 43°36' W 005°41'2 3.1
2017-Oct-13 04:30N 43°38' W 005°41'1 2.7
2017-Oct-13 04:00N 43°39' W 005°42'1 2.9
2017-Oct-13 03:30N 43°40' W 005°43'2 3.1
2017-Oct-13 03:00N 43°40' W 005°45'2 4.1
2017-Oct-13 02:30N 43°41' W 005°47'2 4.3
2017-Oct-13 02:00N 43°42' W 005°50'3 5.1
2017-Oct-13 01:30N 43°43' W 005°54'2 4.8
2017-Oct-13 01:00N 43°43' W 005°57'2 4.7
2017-Oct-13 00:30N 43°43' W 006°00'2 4.7
2017-Oct-13 00:00N 43°43' W 006°03'3 5.1
2017-Oct-12 23:30N 43°44' W 006°07'3 5.0
2017-Oct-12 23:00N 43°44' W 006°10'3 4.9
2017-Oct-12 22:29N 43°44' W 006°14'2 4.8
2017-Oct-12 22:00N 43°44' W 006°17'2 5.0
2017-Oct-12 21:30N 43°45' W 006°20'2 4.9
2017-Oct-12 21:00N 43°45' W 006°24'2 4.3
2017-Oct-12 20:30N 43°45' W 006°27'2 3.7
2017-Oct-12 20:00N 43°45' W 006°29'2 3.7
2017-Oct-12 19:30N 43°45' W 006°32'2 3.6
2017-Oct-12 19:00N 43°45' W 006°34'2 3.2
2017-Oct-12 18:30N 43°45' W 006°37'1 2.6
2017-Oct-12 18:00N 43°45' W 006°38'2 2.4
2017-Oct-12 17:21N 43°46' W 006°41'1 2.9
2017-Oct-12 16:58N 43°46' W 006°42'168 4.1
2017-Oct-10 23:26N 41°30' W 008°58'12 8.6
2017-Oct-10 22:02N 41°19' W 008°52'1 8.6
2017-Oct-10 21:57N 41°18' W 008°51'4 8.6
2017-Oct-10 21:30N 41°15' W 008°49'5 9.3
2017-Oct-10 21:00N 41°11' W 008°46'3 5.5
2017-Oct-10 20:30N 41°11' W 008°42'1 2.0
2017-Oct-10 19:59N 41°12' W 008°41'0 0.0
2017-Oct-10 19:29N 41°12' W 008°41'0 0.0
2017-Oct-10 18:59N 41°12' W 008°41'0 0.0
2017-Oct-10 18:29N 41°12' W 008°41'0 0.0
2017-Oct-10 17:59N 41°12' W 008°41'0 0.0
2017-Oct-10 17:29N 41°12' W 008°41'0 0.0
2017-Oct-10 16:59N 41°12' W 008°41'0 0.0
2017-Oct-10 16:29N 41°12' W 008°41'0 0.0
2017-Oct-10 15:59N 41°12' W 008°41'0 0.0
2017-Oct-10 15:29N 41°12' W 008°41'0 0.0
2017-Oct-10 14:59N 41°12' W 008°41'0 0.0
2017-Oct-10 13:59N 41°12' W 008°41'0 0.0
2017-Oct-10 13:29N 41°12' W 008°41'0 0.0
2017-Oct-10 12:59N 41°12' W 008°41'0 0.0
2017-Oct-10 12:29N 41°12' W 008°41'0 0.0
2017-Oct-10 11:59N 41°12' W 008°41'0 0.0
2017-Oct-10 11:29N 41°12' W 008°41'0 0.0
2017-Oct-10 10:59N 41°12' W 008°41'0 0.0
2017-Oct-10 10:29N 41°12' W 008°41'0 0.0
2017-Oct-10 09:59N 41°12' W 008°41'0 0.0
2017-Oct-10 09:29N 41°12' W 008°41'0 0.0
2017-Oct-10 08:56N 41°12' W 008°41'0 0.0
2017-Oct-10 08:29N 41°12' W 008°41'0 0.0
2017-Oct-10 07:59N 41°12' W 008°41'0 0.0
2017-Oct-10 07:26N 41°12' W 008°41'0 0.0
2017-Oct-10 06:59N 41°12' W 008°41'0 0.0
2017-Oct-10 06:29N 41°12' W 008°41'0 0.0
2017-Oct-10 05:59N 41°12' W 008°41'0 0.0
2017-Oct-10 05:26N 41°12' W 008°41'0 0.0
2017-Oct-10 04:59N 41°12' W 008°41'0 0.0
2017-Oct-10 04:29N 41°12' W 008°41'0 0.0
2017-Oct-10 03:59N 41°12' W 008°41'0 0.0
2017-Oct-10 03:29N 41°12' W 008°41'0 0.0
2017-Oct-10 02:59N 41°12' W 008°41'0 0.0
2017-Oct-10 02:29N 41°12' W 008°41'0 0.0
2017-Oct-10 01:59N 41°12' W 008°41'0 0.0
2017-Oct-10 01:29N 41°12' W 008°41'0 0.0
2017-Oct-10 00:59N 41°12' W 008°41'0 0.0
2017-Oct-10 00:29N 41°12' W 008°41'0 0.0
2017-Oct-09 23:59N 41°12' W 008°41'0 0.0
2017-Oct-09 23:29N 41°12' W 008°41'0 0.0
2017-Oct-09 22:59N 41°12' W 008°41'0 0.0
2017-Oct-09 22:29N 41°12' W 008°41'0 0.0
2017-Oct-09 21:59N 41°12' W 008°41'0 0.0
2017-Oct-09 21:29N 41°12' W 008°41'0 0.0
2017-Oct-09 20:59N 41°12' W 008°41'0 0.0
2017-Oct-09 20:29N 41°12' W 008°41'0 0.0
2017-Oct-09 19:59N 41°12' W 008°41'0 0.0
2017-Oct-09 19:26N 41°12' W 008°41'0 0.0
2017-Oct-09 18:56N 41°12' W 008°41'0 0.0
2017-Oct-09 18:23N 41°12' W 008°41'0 0.0
2017-Oct-09 17:59N 41°12' W 008°41'0 0.0
2017-Oct-09 17:29N 41°12' W 008°41'0 0.0
2017-Oct-09 16:56N 41°12' W 008°41'0 0.0
2017-Oct-09 16:29N 41°12' W 008°41'0 0.0
2017-Oct-09 15:59N 41°12' W 008°41'0 0.0
2017-Oct-09 15:29N 41°12' W 008°41'0 0.0
2017-Oct-09 14:59N 41°12' W 008°41'0 0.0
2017-Oct-09 14:29N 41°12' W 008°41'0 0.0
2017-Oct-09 13:59N 41°12' W 008°41'0 0.0
2017-Oct-09 13:29N 41°12' W 008°41'0 0.0
2017-Oct-09 12:59N 41°12' W 008°41'0 0.0
2017-Oct-09 12:29N 41°12' W 008°41'0 0.0
2017-Oct-09 11:59N 41°12' W 008°41'0 0.0
2017-Oct-09 11:29N 41°12' W 008°41'0 0.0
2017-Oct-09 10:59N 41°12' W 008°41'0 0.0
2017-Oct-09 10:29N 41°12' W 008°41'0 0.0
2017-Oct-09 09:59N 41°12' W 008°41'0 0.0
2017-Oct-09 09:29N 41°12' W 008°41'0 0.0
2017-Oct-09 08:59N 41°12' W 008°41'0 0.0
2017-Oct-09 08:29N 41°12' W 008°41'0 0.0
2017-Oct-09 07:59N 41°12' W 008°41'0 0.0
2017-Oct-09 07:29N 41°12' W 008°41'0 0.0
2017-Oct-09 06:59N 41°12' W 008°41'0 0.0
2017-Oct-09 06:29N 41°12' W 008°41'0 0.0
2017-Oct-09 05:59N 41°12' W 008°41'0 0.0
2017-Oct-09 05:29N 41°12' W 008°41'0 0.0
2017-Oct-09 04:59N 41°12' W 008°41'0 0.0
2017-Oct-09 04:29N 41°12' W 008°41'0 0.0
2017-Oct-09 03:59N 41°12' W 008°41'0 0.0
2017-Oct-09 03:29N 41°12' W 008°41'0 0.0
2017-Oct-09 02:59N 41°12' W 008°41'0 0.0
2017-Oct-09 02:29N 41°12' W 008°41'0 0.0
2017-Oct-09 01:59N 41°12' W 008°41'0 0.0
2017-Oct-09 01:29N 41°12' W 008°41'0 0.0
2017-Oct-09 00:59N 41°12' W 008°41'0 0.0
2017-Oct-09 00:29N 41°12' W 008°41'0 0.0
2017-Oct-08 23:59N 41°12' W 008°41'0 0.0
2017-Oct-08 23:29N 41°12' W 008°41'0 0.0
2017-Oct-08 22:59N 41°12' W 008°41'0 0.0
2017-Oct-08 22:29N 41°12' W 008°41'0 0.0
2017-Oct-08 21:59N 41°12' W 008°41'0 0.0
2017-Oct-08 21:29N 41°12' W 008°41'0 0.0
2017-Oct-08 20:59N 41°12' W 008°41'0 0.0
2017-Oct-08 20:29N 41°12' W 008°41'0 0.0
2017-Oct-08 19:59N 41°12' W 008°41'0 0.0
2017-Oct-08 19:26N 41°12' W 008°41'0 0.0
2017-Oct-08 18:59N 41°12' W 008°41'0 0.0
2017-Oct-08 18:29N 41°12' W 008°41'0 0.0
2017-Oct-08 17:59N 41°12' W 008°41'0 0.0
2017-Oct-08 17:29N 41°12' W 008°41'0 0.0
2017-Oct-08 16:59N 41°12' W 008°41'0 0.0
2017-Oct-08 16:29N 41°12' W 008°41'0 0.0
2017-Oct-08 15:59N 41°12' W 008°41'0 0.0
2017-Oct-08 15:29N 41°12' W 008°41'0 0.0
2017-Oct-08 14:59N 41°12' W 008°41'0 0.0
2017-Oct-08 14:29N 41°12' W 008°41'0 0.0
2017-Oct-08 13:59N 41°12' W 008°41'0 0.0
2017-Oct-08 13:29N 41°12' W 008°41'0 0.0
2017-Oct-08 12:56N 41°12' W 008°41'0 0.0
2017-Oct-08 12:29N 41°12' W 008°41'0 0.0
2017-Oct-08 11:59N 41°12' W 008°41'0 0.0
2017-Oct-08 11:29N 41°12' W 008°41'0 0.0
2017-Oct-08 10:59N 41°12' W 008°41'0 0.0
2017-Oct-08 10:29N 41°12' W 008°41'0 0.0
2017-Oct-08 09:59N 41°12' W 008°41'0 0.0
2017-Oct-08 09:29N 41°12' W 008°41'0 0.0
2017-Oct-08 08:59N 41°12' W 008°41'0 0.0
2017-Oct-08 08:29N 41°12' W 008°41'0 0.0
2017-Oct-08 07:59N 41°12' W 008°41'0 0.0
2017-Oct-08 07:29N 41°12' W 008°41'0 0.0
2017-Oct-08 06:59N 41°12' W 008°41'0 0.0
2017-Oct-08 06:26N 41°12' W 008°41'0 0.0
2017-Oct-08 05:59N 41°12' W 008°41'0 0.0
2017-Oct-08 05:29N 41°12' W 008°41'0 0.0
2017-Oct-08 04:59N 41°12' W 008°41'0 0.0
2017-Oct-08 04:29N 41°12' W 008°41'0 0.0
2017-Oct-08 03:59N 41°12' W 008°41'0 0.0
2017-Oct-08 03:29N 41°12' W 008°41'0 0.0
2017-Oct-08 02:56N 41°12' W 008°41'0 0.0
2017-Oct-08 02:29N 41°12' W 008°41'0 0.1
2017-Oct-08 01:56N 41°12' W 008°41'0 0.1
2017-Oct-08 01:29N 41°12' W 008°41'0 0.0
2017-Oct-08 00:59N 41°12' W 008°41'0 0.0
2017-Oct-08 00:29N 41°12' W 008°41'0 0.0
2017-Oct-07 23:59N 41°12' W 008°41'0 0.0
2017-Oct-07 23:29N 41°12' W 008°41'0 0.0
2017-Oct-07 22:59N 41°12' W 008°41'0 0.0
2017-Oct-07 22:29N 41°12' W 008°41'0 0.0
2017-Oct-07 21:59N 41°12' W 008°41'0 0.0
2017-Oct-07 21:29N 41°12' W 008°41'0 0.0
2017-Oct-07 20:59N 41°12' W 008°41'0 0.0
2017-Oct-07 20:29N 41°12' W 008°41'0 0.0
2017-Oct-07 19:59N 41°12' W 008°41'0 0.0
2017-Oct-07 19:29N 41°12' W 008°41'  
Track history (hours):
 
Tides and Currents Weather Stations Pressure Air Temp Water Temp Dewpoint Dewpoint Depression Visibility Wind Speed Wind Dir Waves Ship Positions

Amuesa

Last reported at 2017-Oct-17 19:17 UTC. Time now 2017-Oct-18 02:33 UTC.
Position N 43°57' W 005°22'.

Length 90 m; draft 4.2 m.

Type: Cargo ship. MMSI: 255802640.

Date/timePositionNaut miles runAvg speedWind from/ knotsBaromVisibWave heightAir tempDewpointWater temp
2017-Oct-17 19:17N 43°57' W 005°22'3 9.2
2017-Oct-17 18:55N 43°54' W 005°25'5 9.2
2017-Oct-17 18:20N 43°50' W 005°29'3 9.2
2017-Oct-17 17:59N 43°47' W 005°32'4 9.1
2017-Oct-17 17:30N 43°44' W 005°34'4 9.2
2017-Oct-17 17:01N 43°40' W 005°38'7 2.0
2017-Oct-17 13:40N 43°34' W 005°42'0 0.0
2017-Oct-17 13:16N 43°34' W 005°42'0 0.0
2017-Oct-17 11:04N 43°34' W 005°42'0 0.0
2017-Oct-17 10:52N 43°34' W 005°42'0 0.0
2017-Oct-17 10:28N 43°34' W 005°42'0 0.0
2017-Oct-17 09:46N 43°34' W 005°42'0 0.0
2017-Oct-17 09:22N 43°34' W 005°42'0 0.0
2017-Oct-17 08:58N 43°34' W 005°42'0 0.0
2017-Oct-17 08:28N 43°34' W 005°42'0 0.0
2017-Oct-17 07:58N 43°34' W 005°42'0 0.0
2017-Oct-17 07:22N 43°34' W 005°42'0 0.0
2017-Oct-17 06:52N 43°34' W 005°42'0 0.0
2017-Oct-17 06:22N 43°34' W 005°42'0 0.0
2017-Oct-17 05:58N 43°34' W 005°42'0 0.0
2017-Oct-17 05:28N 43°34' W 005°42'0 0.0
2017-Oct-17 04:58N 43°34' W 005°42'0 0.0
2017-Oct-17 04:28N 43°34' W 005°42'0 0.0
2017-Oct-17 03:46N 43°34' W 005°42'0 0.0
2017-Oct-17 01:52N 43°34' W 005°42'0 0.0
2017-Oct-17 01:28N 43°34' W 005°42'0 0.0
2017-Oct-17 00:58N 43°34' W 005°42'0 0.0
2017-Oct-17 00:28N 43°34' W 005°42'0 0.0
2017-Oct-16 19:16N 43°34' W 005°42'0 0.0
2017-Oct-16 18:58N 43°34' W 005°42'0 0.8
2017-Oct-16 18:30N 43°34' W 005°42'2 4.7
2017-Oct-16 17:59N 43°36' W 005°41'0 0.1
2017-Oct-16 17:00N 43°36' W 005°41'0 0.0
2017-Oct-16 16:30N 43°36' W 005°41'0 0.0
2017-Oct-16 07:24N 43°36' W 005°41'0 0.1
2017-Oct-16 06:48N 43°36' W 005°41'0 0.2
2017-Oct-16 06:18N 43°36' W 005°41'0 0.1
2017-Oct-16 06:00N 43°36' W 005°41'0 0.0
2017-Oct-16 05:30N 43°36' W 005°41'0 0.0
2017-Oct-16 05:00N 43°36' W 005°41'0 0.0
2017-Oct-16 04:30N 43°36' W 005°41'0 0.0
2017-Oct-16 04:00N 43°36' W 005°41'0 0.0
2017-Oct-16 03:00N 43°36' W 005°41'0 0.1
2017-Oct-16 02:30N 43°36' W 005°41'0 0.0
2017-Oct-16 02:00N 43°36' W 005°41'0 0.0
2017-Oct-16 01:30N 43°36' W 005°41'0 0.1
2017-Oct-16 00:48N 43°36' W 005°41'0 0.0
2017-Oct-16 00:30N 43°36' W 005°41'0 0.0
2017-Oct-16 00:00N 43°36' W 005°41'0 0.0
2017-Oct-15 19:36N 43°36' W 005°41'0 0.2
2017-Oct-15 19:30N 43°36' W 005°41'0 0.1
2017-Oct-15 19:00N 43°36' W 005°41'0 0.0
2017-Oct-15 18:30N 43°36' W 005°41'0 0.0
2017-Oct-15 18:00N 43°36' W 005°41'0 0.0
2017-Oct-15 17:30N 43°36' W 005°41'0 0.0
2017-Oct-15 17:00N 43°36' W 005°41'0 0.0
2017-Oct-15 16:24N 43°36' W 005°41'0 0.0
2017-Oct-15 16:00N 43°36' W 005°41'0 0.0
2017-Oct-15 15:30N 43°36' W 005°41'0 0.1
2017-Oct-15 14:54N 43°36' W 005°41'0 0.0
2017-Oct-15 14:00N 43°36' W 005°41'0 0.0
2017-Oct-15 13:30N 43°36' W 005°41'0 0.0
2017-Oct-15 13:00N 43°36' W 005°41'0 0.0
2017-Oct-15 12:30N 43°36' W 005°41'0 0.1
2017-Oct-15 11:54N 43°36' W 005°41'0 0.0
2017-Oct-15 11:24N 43°36' W 005°41'0 0.0
2017-Oct-15 10:54N 43°36' W 005°41'0 0.0
2017-Oct-15 10:30N 43°36' W 005°41'0 0.0
2017-Oct-15 10:00N 43°36' W 005°41'0 0.1
2017-Oct-15 09:30N 43°36' W 005°41'0 0.0
2017-Oct-15 09:00N 43°36' W 005°41'0 0.0
2017-Oct-15 08:30N 43°36' W 005°41'0 0.1
2017-Oct-15 08:00N 43°36' W 005°41'0 0.0
2017-Oct-15 07:30N 43°36' W 005°41'0 0.1
2017-Oct-15 06:54N 43°36' W 005°41'0 0.1
2017-Oct-15 06:30N 43°36' W 005°41'0 0.1
2017-Oct-15 06:00N 43°36' W 005°41'0 0.1
2017-Oct-15 05:30N 43°36' W 005°41'0 0.0
2017-Oct-15 05:00N 43°36' W 005°41'0 0.0
2017-Oct-15 04:30N 43°36' W 005°41'0 0.0
2017-Oct-15 04:00N 43°36' W 005°41'0 0.0
2017-Oct-15 03:30N 43°36' W 005°41'0 0.0
2017-Oct-15 03:00N 43°36' W 005°41'0 0.0
2017-Oct-15 02:30N 43°36' W 005°41'0 0.0
2017-Oct-15 02:00N 43°36' W 005°41'0 0.0
2017-Oct-15 01:30N 43°36' W 005°41'0 0.0
2017-Oct-15 01:00N 43°36' W 005°41'0 0.0
2017-Oct-15 00:30N 43°36' W 005°41'0 0.0
2017-Oct-14 23:54N 43°36' W 005°41'0 0.0
2017-Oct-14 23:30N 43°36' W 005°41'0 0.0
2017-Oct-14 23:00N 43°36' W 005°41'0 0.0
2017-Oct-14 22:30N 43°36' W 005°41'0 0.0
2017-Oct-14 21:57N 43°36' W 005°41'0 0.0
2017-Oct-14 21:27N 43°36' W 005°41'0 0.0
2017-Oct-14 21:00N 43°36' W 005°41'0 0.0
2017-Oct-14 20:30N 43°36' W 005°41'0 0.0
2017-Oct-14 20:00N 43°36' W 005°41'0 0.0
2017-Oct-14 19:30N 43°36' W 005°41'0 0.0
2017-Oct-14 19:00N 43°36' W 005°41'0 0.0
2017-Oct-14 18:30N 43°36' W 005°41'0 0.0
2017-Oct-14 18:00N 43°36' W 005°41'0 0.0
2017-Oct-14 17:30N 43°36' W 005°41'0 0.0
2017-Oct-14 17:00N 43°36' W 005°41'0 0.0
2017-Oct-14 16:30N 43°36' W 005°41'0 0.0
2017-Oct-14 16:00N 43°36' W 005°41'0 0.0
2017-Oct-14 15:24N 43°36' W 005°41'0 0.0
2017-Oct-14 15:00N 43°36' W 005°41'0 0.0
2017-Oct-14 14:27N 43°36' W 005°41'0 0.0
2017-Oct-14 14:00N 43°36' W 005°41'0 0.0
2017-Oct-14 13:30N 43°36' W 005°41'0 0.0
2017-Oct-14 12:54N 43°36' W 005°41'0 0.0
2017-Oct-14 12:30N 43°36' W 005°41'0 0.0
2017-Oct-14 12:00N 43°36' W 005°41'0 0.0
2017-Oct-14 11:30N 43°36' W 005°41'0 0.0
2017-Oct-14 11:00N 43°36' W 005°41'0 0.1
2017-Oct-14 10:30N 43°36' W 005°41'0 0.1
2017-Oct-14 09:48N 43°36' W 005°41'0 0.1
2017-Oct-14 09:30N 43°36' W 005°41'0 0.0
2017-Oct-14 09:00N 43°36' W 005°41'0 0.0
2017-Oct-14 08:30N 43°36' W 005°41'0 0.0
2017-Oct-14 08:00N 43°36' W 005°41'0 0.0
2017-Oct-14 07:30N 43°36' W 005°41'0 0.0
2017-Oct-14 07:00N 43°36' W 005°41'0 0.0
2017-Oct-14 06:30N 43°36' W 005°41'0 0.0
2017-Oct-14 06:00N 43°36' W 005°41'0 0.0
2017-Oct-14 05:30N 43°36' W 005°41'0 0.0
2017-Oct-14 05:00N 43°36' W 005°41'0 0.0
2017-Oct-14 04:30N 43°36' W 005°41'0 0.0
2017-Oct-14 03:48N 43°36' W 005°41'0 0.0
2017-Oct-14 03:30N 43°36' W 005°41'0 0.0
2017-Oct-14 03:00N 43°36' W 005°41'0 0.0
2017-Oct-14 02:30N 43°36' W 005°41'0 0.1
2017-Oct-14 02:00N 43°36' W 005°41'0 0.0
2017-Oct-14 01:30N 43°36' W 005°41'0 0.1
2017-Oct-14 01:00N 43°36' W 005°41'0 0.0
2017-Oct-13 21:54N 43°36' W 005°41'0 0.0
2017-Oct-13 20:00N 43°36' W 005°41'0 0.0
2017-Oct-13 19:24N 43°36' W 005°41'0 0.0
2017-Oct-13 18:48N 43°36' W 005°41'0 0.0
2017-Oct-13 18:27N 43°36' W 005°41'0 0.0
2017-Oct-13 18:00N 43°36' W 005°41'0 0.0
2017-Oct-13 17:27N 43°36' W 005°41'0 0.1
2017-Oct-13 16:57N 43°36' W 005°41'0 0.0
2017-Oct-13 16:27N 43°36' W 005°41'0 0.0
2017-Oct-13 16:00N 43°36' W 005°41'0 0.0
2017-Oct-13 15:30N 43°36' W 005°41'0 0.0
2017-Oct-13 15:00N 43°36' W 005°41'0 0.0
2017-Oct-13 13:24N 43°36' W 005°41'0 0.0
2017-Oct-13 12:54N 43°36' W 005°41'0 0.1
2017-Oct-13 12:30N 43°36' W 005°41'0 0.1
2017-Oct-13 12:00N 43°36' W 005°41'0 0.1
2017-Oct-13 11:18N 43°36' W 005°41'0 0.1
2017-Oct-13 10:24N 43°36' W 005°41'0 0.1
2017-Oct-13 09:36N 43°36' W 005°41'0 0.1
2017-Oct-13 09:27N 43°36' W 005°41'0 0.1
2017-Oct-13 08:18N 43°36' W 005°41'0 0.0
2017-Oct-13 07:54N 43°36' W 005°41'0 0.1
2017-Oct-13 07:12N 43°36' W 005°41'0 0.0
2017-Oct-13 07:00N 43°36' W 005°41'0 0.1
2017-Oct-13 06:30N 43°36' W 005°41'0 0.0
2017-Oct-13 06:00N 43°36' W 005°41'0 0.0
2017-Oct-13 05:12N 43°36' W 005°41'0 0.5
2017-Oct-13 05:00N 43°36' W 005°41'2 3.1
2017-Oct-13 04:30N 43°38' W 005°41'1 2.7
2017-Oct-13 04:00N 43°39' W 005°42'1 2.9
2017-Oct-13 03:30N 43°40' W 005°43'2 3.1
2017-Oct-13 03:00N 43°40' W 005°45'2 4.1
2017-Oct-13 02:30N 43°41' W 005°47'2 4.3
2017-Oct-13 02:00N 43°42' W 005°50'3 5.1
2017-Oct-13 01:30N 43°43' W 005°54'2 4.8
2017-Oct-13 01:00N 43°43' W 005°57'2 4.7
2017-Oct-13 00:30N 43°43' W 006°00'2 4.7
2017-Oct-13 00:00N 43°43' W 006°03'3 5.1
2017-Oct-12 23:30N 43°44' W 006°07'3 5.0
2017-Oct-12 23:00N 43°44' W 006°10'3 4.9
2017-Oct-12 22:29N 43°44' W 006°14'2 4.8
2017-Oct-12 22:00N 43°44' W 006°17'2 5.0
2017-Oct-12 21:30N 43°45' W 006°20'2 4.9
2017-Oct-12 21:00N 43°45' W 006°24'2 4.3
2017-Oct-12 20:30N 43°45' W 006°27'2 3.7
2017-Oct-12 20:00N 43°45' W 006°29'2 3.7
2017-Oct-12 19:30N 43°45' W 006°32'2 3.6
2017-Oct-12 19:00N 43°45' W 006°34'2 3.2
2017-Oct-12 18:30N 43°45' W 006°37'1 2.6
2017-Oct-12 18:00N 43°45' W 006°38'2 2.4
2017-Oct-12 17:21N 43°46' W 006°41'1 2.9
2017-Oct-12 16:58N 43°46' W 006°42'168 4.1
2017-Oct-10 23:26N 41°30' W 008°58'12 8.6
2017-Oct-10 22:02N 41°19' W 008°52'1 8.6
2017-Oct-10 21:57N 41°18' W 008°51'4 8.6
2017-Oct-10 21:30N 41°15' W 008°49'5 9.3
2017-Oct-10 21:00N 41°11' W 008°46'3 5.5
2017-Oct-10 20:30N 41°11' W 008°42'1 2.0
2017-Oct-10 19:59N 41°12' W 008°41'0 0.0
2017-Oct-10 19:29N 41°12' W 008°41'0 0.0
2017-Oct-10 18:59N 41°12' W 008°41'0 0.0
2017-Oct-10 18:29N 41°12' W 008°41'0 0.0
2017-Oct-10 17:59N 41°12' W 008°41'0 0.0
2017-Oct-10 17:29N 41°12' W 008°41'0 0.0
2017-Oct-10 16:59N 41°12' W 008°41'0 0.0
2017-Oct-10 16:29N 41°12' W 008°41'0 0.0
2017-Oct-10 15:59N 41°12' W 008°41'0 0.0
2017-Oct-10 15:29N 41°12' W 008°41'0 0.0
2017-Oct-10 14:59N 41°12' W 008°41'0 0.0
2017-Oct-10 13:59N 41°12' W 008°41'0 0.0
2017-Oct-10 13:29N 41°12' W 008°41'0 0.0
2017-Oct-10 12:59N 41°12' W 008°41'0 0.0
2017-Oct-10 12:29N 41°12' W 008°41'0 0.0
2017-Oct-10 11:59N 41°12' W 008°41'0 0.0
2017-Oct-10 11:29N 41°12' W 008°41'0 0.0
2017-Oct-10 10:59N 41°12' W 008°41'0 0.0
2017-Oct-10 10:29N 41°12' W 008°41'0 0.0
2017-Oct-10 09:59N 41°12' W 008°41'0 0.0
2017-Oct-10 09:29N 41°12' W 008°41'0 0.0
2017-Oct-10 08:56N 41°12' W 008°41'0 0.0
2017-Oct-10 08:29N 41°12' W 008°41'0 0.0
2017-Oct-10 07:59N 41°12' W 008°41'0 0.0
2017-Oct-10 07:26N 41°12' W 008°41'0 0.0
2017-Oct-10 06:59N 41°12' W 008°41'0 0.0
2017-Oct-10 06:29N 41°12' W 008°41'0 0.0
2017-Oct-10 05:59N 41°12' W 008°41'0 0.0
2017-Oct-10 05:26N 41°12' W 008°41'0 0.0
2017-Oct-10 04:59N 41°12' W 008°41'0 0.0
2017-Oct-10 04:29N 41°12' W 008°41'0 0.0
2017-Oct-10 03:59N 41°12' W 008°41'0 0.0
2017-Oct-10 03:29N 41°12' W 008°41'0 0.0
2017-Oct-10 02:59N 41°12' W 008°41'0 0.0
2017-Oct-10 02:29N 41°12' W 008°41'0 0.0
2017-Oct-10 01:59N 41°12' W 008°41'0 0.0
2017-Oct-10 01:29N 41°12' W 008°41'0 0.0
2017-Oct-10 00:59N 41°12' W 008°41'0 0.0
2017-Oct-10 00:29N 41°12' W 008°41'0 0.0
2017-Oct-09 23:59N 41°12' W 008°41'0 0.0
2017-Oct-09 23:29N 41°12' W 008°41'0 0.0
2017-Oct-09 22:59N 41°12' W 008°41'0 0.0
2017-Oct-09 22:29N 41°12' W 008°41'0 0.0
2017-Oct-09 21:59N 41°12' W 008°41'0 0.0
2017-Oct-09 21:29N 41°12' W 008°41'0 0.0
2017-Oct-09 20:59N 41°12' W 008°41'0 0.0
2017-Oct-09 20:29N 41°12' W 008°41'0 0.0
2017-Oct-09 19:59N 41°12' W 008°41'0 0.0
2017-Oct-09 19:26N 41°12' W 008°41'0 0.0
2017-Oct-09 18:56N 41°12' W 008°41'0 0.0
2017-Oct-09 18:23N 41°12' W 008°41'0 0.0
2017-Oct-09 17:59N 41°12' W 008°41'0 0.0
2017-Oct-09 17:29N 41°12' W 008°41'0 0.0
2017-Oct-09 16:56N 41°12' W 008°41'0 0.0
2017-Oct-09 16:29N 41°12' W 008°41'0 0.0
2017-Oct-09 15:59N 41°12' W 008°41'0 0.0
2017-Oct-09 15:29N 41°12' W 008°41'0 0.0
2017-Oct-09 14:59N 41°12' W 008°41'0 0.0
2017-Oct-09 14:29N 41°12' W 008°41'0 0.0
2017-Oct-09 13:59N 41°12' W 008°41'0 0.0
2017-Oct-09 13:29N 41°12' W 008°41'0 0.0
2017-Oct-09 12:59N 41°12' W 008°41'0 0.0
2017-Oct-09 12:29N 41°12' W 008°41'0 0.0
2017-Oct-09 11:59N 41°12' W 008°41'0 0.0
2017-Oct-09 11:29N 41°12' W 008°41'0 0.0
2017-Oct-09 10:59N 41°12' W 008°41'0 0.0
2017-Oct-09 10:29N 41°12' W 008°41'0 0.0
2017-Oct-09 09:59N 41°12' W 008°41'0 0.0
2017-Oct-09 09:29N 41°12' W 008°41'0 0.0
2017-Oct-09 08:59N 41°12' W 008°41'0 0.0
2017-Oct-09 08:29N 41°12' W 008°41'0 0.0
2017-Oct-09 07:59N 41°12' W 008°41'0 0.0
2017-Oct-09 07:29N 41°12' W 008°41'0 0.0
2017-Oct-09 06:59N 41°12' W 008°41'0 0.0
2017-Oct-09 06:29N 41°12' W 008°41'0 0.0
2017-Oct-09 05:59N 41°12' W 008°41'0 0.0
2017-Oct-09 05:29N 41°12' W 008°41'0 0.0
2017-Oct-09 04:59N 41°12' W 008°41'0 0.0
2017-Oct-09 04:29N 41°12' W 008°41'0 0.0
2017-Oct-09 03:59N 41°12' W 008°41'0 0.0
2017-Oct-09 03:29N 41°12' W 008°41'0 0.0
2017-Oct-09 02:59N 41°12' W 008°41'0 0.0
2017-Oct-09 02:29N 41°12' W 008°41'0 0.0
2017-Oct-09 01:59N 41°12' W 008°41'0 0.0
2017-Oct-09 01:29N 41°12' W 008°41'0 0.0
2017-Oct-09 00:59N 41°12' W 008°41'0 0.0
2017-Oct-09 00:29N 41°12' W 008°41'0 0.0
2017-Oct-08 23:59N 41°12' W 008°41'0 0.0
2017-Oct-08 23:29N 41°12' W 008°41'0 0.0
2017-Oct-08 22:59N 41°12' W 008°41'0 0.0
2017-Oct-08 22:29N 41°12' W 008°41'0 0.0
2017-Oct-08 21:59N 41°12' W 008°41'0 0.0
2017-Oct-08 21:29N 41°12' W 008°41'0 0.0
2017-Oct-08 20:59N 41°12' W 008°41'0 0.0
2017-Oct-08 20:29N 41°12' W 008°41'0 0.0
2017-Oct-08 19:59N 41°12' W 008°41'0 0.0
2017-Oct-08 19:26N 41°12' W 008°41'0 0.0
2017-Oct-08 18:59N 41°12' W 008°41'0 0.0
2017-Oct-08 18:29N 41°12' W 008°41'0 0.0
2017-Oct-08 17:59N 41°12' W 008°41'0 0.0
2017-Oct-08 17:29N 41°12' W 008°41'0 0.0
2017-Oct-08 16:59N 41°12' W 008°41'0 0.0
2017-Oct-08 16:29N 41°12' W 008°41'0 0.0
2017-Oct-08 15:59N 41°12' W 008°41'0 0.0
2017-Oct-08 15:29N 41°12' W 008°41'0 0.0
2017-Oct-08 14:59N 41°12' W 008°41'0 0.0
2017-Oct-08 14:29N 41°12' W 008°41'0 0.0
2017-Oct-08 13:59N 41°12' W 008°41'0 0.0
2017-Oct-08 13:29N 41°12' W 008°41'0 0.0
2017-Oct-08 12:56N 41°12' W 008°41'0 0.0
2017-Oct-08 12:29N 41°12' W 008°41'0 0.0
2017-Oct-08 11:59N 41°12' W 008°41'0 0.0
2017-Oct-08 11:29N 41°12' W 008°41'0 0.0
2017-Oct-08 10:59N 41°12' W 008°41'0 0.0
2017-Oct-08 10:29N 41°12' W 008°41'0 0.0
2017-Oct-08 09:59N 41°12' W 008°41'0 0.0
2017-Oct-08 09:29N 41°12' W 008°41'0 0.0
2017-Oct-08 08:59N 41°12' W 008°41'0 0.0
2017-Oct-08 08:29N 41°12' W 008°41'0 0.0
2017-Oct-08 07:59N 41°12' W 008°41'0 0.0
2017-Oct-08 07:29N 41°12' W 008°41'0 0.0
2017-Oct-08 06:59N 41°12' W 008°41'0 0.0
2017-Oct-08 06:26N 41°12' W 008°41'0 0.0
2017-Oct-08 05:59N 41°12' W 008°41'0 0.0
2017-Oct-08 05:29N 41°12' W 008°41'0 0.0
2017-Oct-08 04:59N 41°12' W 008°41'0 0.0
2017-Oct-08 04:29N 41°12' W 008°41'0 0.0
2017-Oct-08 03:59N 41°12' W 008°41'0 0.0
2017-Oct-08 03:29N 41°12' W 008°41'0 0.0
2017-Oct-08 02:56N 41°12' W 008°41'0 0.0
2017-Oct-08 02:29N 41°12' W 008°41'0 0.1
2017-Oct-08 01:56N 41°12' W 008°41'0 0.1
2017-Oct-08 01:29N 41°12' W 008°41'0 0.0
2017-Oct-08 00:59N 41°12' W 008°41'0 0.0
2017-Oct-08 00:29N 41°12' W 008°41'0 0.0
2017-Oct-07 23:59N 41°12' W 008°41'0 0.0
2017-Oct-07 23:29N 41°12' W 008°41'0 0.0
2017-Oct-07 22:59N 41°12' W 008°41'0 0.0
2017-Oct-07 22:29N 41°12' W 008°41'0 0.0
2017-Oct-07 21:59N 41°12' W 008°41'0 0.0
2017-Oct-07 21:29N 41°12' W 008°41'0 0.0
2017-Oct-07 20:59N 41°12' W 008°41'0 0.0
2017-Oct-07 20:29N 41°12' W 008°41'0 0.0
2017-Oct-07 19:59N 41°12' W 008°41'0 0.0
2017-Oct-07 19:29N 41°12' W 008°41'  

Dump ship's entire track history